createdAt,value
2018-11-13T00:00:24.763Z,35.47
2018-11-13T00:02:54.609Z,36.43
2018-11-13T00:05:24.425Z,34.93
2018-11-13T00:07:54.619Z,34.67
2018-11-13T00:10:23.962Z,35.40
2018-11-13T00:12:53.309Z,36.67
2018-11-13T00:15:22.606Z,36.20
2018-11-13T00:17:51.870Z,37.10
2018-11-13T00:20:21.177Z,36.97
2018-11-13T00:22:50.402Z,38.40
2018-11-13T00:25:20.177Z,36.63
2018-11-13T00:27:49.490Z,37.80
2018-11-13T00:30:20.957Z,36.73
2018-11-13T00:32:50.640Z,35.77
2018-11-13T00:35:21.369Z,37.43
2018-11-13T00:37:51.203Z,36.27
2018-11-13T00:40:20.492Z,36.33
2018-11-13T00:42:50.116Z,36.67
2018-11-13T00:45:19.920Z,36.57
2018-11-13T00:47:49.065Z,37.73
2018-11-13T00:50:19.507Z,36.93
2018-11-13T00:52:49.935Z,36.43
2018-11-13T00:55:19.947Z,38.23
2018-11-13T00:57:49.183Z,37.43
2018-11-13T01:00:19.756Z,38.53
2018-11-13T01:02:48.935Z,37.77
2018-11-13T01:05:19.606Z,37.67
2018-11-13T01:07:50.025Z,37.53
2018-11-13T01:10:19.864Z,36.87
2018-11-13T01:12:49.377Z,38.30
2018-11-13T01:15:19.874Z,37.67
2018-11-13T01:17:49.627Z,35.87
2018-11-13T01:20:19.403Z,36.83
2018-11-13T01:22:48.639Z,37.63
2018-11-13T01:25:18.226Z,37.53
2018-11-13T01:27:47.614Z,37.77
2018-11-13T01:30:17.448Z,38.10
2018-11-13T01:32:46.948Z,36.90
2018-11-13T01:35:18.006Z,37.00
2018-11-13T01:37:47.451Z,36.93
2018-11-13T01:40:18.741Z,35.70
2018-11-13T01:42:47.966Z,36.57
2018-11-13T01:45:18.361Z,34.80
2018-11-13T01:47:47.595Z,35.43
2018-11-13T01:50:17.919Z,34.80
2018-11-13T01:52:47.325Z,36.23
2018-11-13T01:55:17.200Z,35.20
2018-11-13T01:57:46.431Z,36.13
2018-11-13T02:00:23.753Z,35.30
2018-11-13T02:02:54.364Z,35.63
2018-11-13T02:05:25.493Z,35.00
2018-11-13T02:07:55.796Z,35.80
2018-11-13T02:10:25.141Z,34.60
2018-11-13T02:12:54.408Z,33.37
2018-11-13T02:15:23.623Z,34.10
2018-11-13T02:17:52.919Z,33.13
2018-11-13T02:20:22.909Z,35.93
2018-11-13T02:22:52.131Z,35.23
2018-11-13T02:25:21.696Z,34.37
2018-11-13T02:27:51.116Z,33.33
2018-11-13T02:30:22.591Z,34.63
2018-11-13T02:32:51.906Z,34.37
2018-11-13T02:35:21.230Z,34.63
2018-11-13T02:37:50.375Z,35.57
2018-11-13T02:40:19.639Z,33.00
2018-11-13T02:42:48.862Z,33.50
2018-11-13T02:45:19.900Z,33.40
2018-11-13T02:47:49.178Z,32.53
2018-11-13T02:50:25.278Z,33.40
2018-11-13T02:52:54.500Z,35.03
2018-11-13T02:55:23.719Z,33.93
2018-11-13T02:57:52.985Z,34.40
2018-11-13T03:00:23.276Z,35.23
2018-11-13T03:02:52.487Z,34.83
2018-11-13T03:05:22.489Z,34.20
2018-11-13T03:07:51.879Z,33.93
2018-11-13T03:10:21.504Z,33.73
2018-11-13T03:12:50.803Z,34.90
2018-11-13T03:15:21.440Z,34.40
2018-11-13T03:17:50.874Z,32.07
2018-11-13T03:20:20.743Z,33.57
2018-11-13T03:22:50.372Z,33.20
2018-11-13T03:25:20.748Z,32.00
2018-11-13T03:27:50.021Z,32.83
2018-11-13T03:30:21.049Z,32.93
2018-11-13T03:32:50.435Z,33.97
2018-11-13T03:35:20.012Z,32.77
2018-11-13T03:37:49.267Z,34.37
2018-11-13T03:40:18.609Z,32.47
2018-11-13T03:42:48.784Z,34.00
2018-11-13T03:45:18.495Z,33.83
2018-11-13T03:47:47.862Z,34.03
2018-11-13T03:50:19.240Z,32.63
2018-11-13T03:52:48.570Z,33.80
2018-11-13T03:55:18.447Z,33.27
2018-11-13T03:57:48.357Z,34.17
2018-11-13T04:00:18.887Z,32.97
2018-11-13T04:02:48.200Z,34.13
2018-11-13T04:05:19.430Z,32.80
2018-11-13T04:07:49.969Z,33.90
2018-11-13T04:10:20.107Z,33.83
2018-11-13T04:12:49.476Z,33.80
2018-11-13T04:15:20.384Z,32.27
2018-11-13T04:17:49.812Z,33.43
2018-11-13T04:20:20.358Z,32.37
2018-11-13T04:22:49.817Z,31.40
2018-11-13T04:25:19.029Z,31.33
2018-11-13T04:27:48.237Z,31.47
2018-11-13T04:30:18.396Z,31.67
2018-11-13T04:32:48.221Z,32.27
2018-11-13T04:35:18.200Z,31.07
2018-11-13T04:37:47.437Z,32.13
2018-11-13T04:40:17.848Z,30.97
2018-11-13T04:42:48.469Z,30.00
2018-11-13T04:45:19.157Z,30.73
2018-11-13T04:47:49.016Z,29.63
2018-11-13T04:50:19.368Z,29.53
2018-11-13T04:52:48.613Z,30.07
2018-11-13T04:55:18.272Z,28.00
2018-11-13T04:57:48.380Z,29.43
2018-11-13T05:00:20.067Z,28.43
2018-11-13T05:02:50.243Z,29.27
2018-11-13T05:05:20.139Z,28.53
2018-11-13T05:07:50.597Z,28.67
2018-11-13T05:10:19.970Z,27.63
2018-11-13T05:12:50.125Z,28.40
2018-11-13T05:15:19.379Z,27.83
2018-11-13T05:17:48.748Z,28.63
2018-11-13T05:20:18.429Z,29.43
2018-11-13T05:22:48.362Z,28.00
2018-11-13T05:25:19.914Z,28.20
2018-11-13T05:27:49.152Z,29.07
2018-11-13T05:30:19.616Z,27.70
2018-11-13T05:32:49.013Z,26.90
2018-11-13T05:35:19.375Z,28.03
2018-11-13T05:37:48.725Z,28.23
2018-11-13T05:40:19.380Z,26.33
2018-11-13T05:42:48.773Z,27.27
2018-11-13T05:45:19.556Z,28.13
2018-11-13T05:47:48.869Z,28.03
2018-11-13T05:50:18.828Z,26.37
2018-11-13T05:52:49.470Z,28.47
2018-11-13T05:55:19.449Z,27.87
2018-11-13T05:57:48.896Z,29.20
2018-11-13T06:00:19.771Z,29.37
2018-11-13T06:02:48.995Z,29.33
2018-11-13T06:05:18.257Z,28.63
2018-11-13T06:07:47.476Z,29.37
2018-11-13T06:10:16.799Z,30.10
2018-11-13T06:12:45.996Z,30.70
2018-11-13T06:15:15.233Z,29.73
2018-11-13T06:17:44.496Z,29.20
2018-11-13T06:20:14.856Z,29.83
2018-11-13T06:22:44.152Z,30.97
2018-11-13T06:25:15.810Z,29.60
2018-11-13T06:27:46.460Z,29.53
2018-11-13T06:30:19.020Z,29.97
2018-11-13T06:32:48.870Z,30.97
2018-11-13T06:35:19.104Z,31.20
2018-11-13T06:37:48.412Z,30.40
2018-11-13T06:40:17.734Z,31.97
2018-11-13T06:42:47.247Z,30.47
2018-11-13T06:45:20.431Z,30.43
2018-11-13T06:47:50.428Z,28.47
2018-11-13T06:50:19.740Z,31.47
2018-11-13T06:52:49.888Z,31.47
2018-11-13T06:55:25.260Z,31.47
2018-11-13T06:57:54.528Z,33.83
2018-11-13T07:00:23.757Z,33.57
2018-11-13T07:02:53.052Z,32.80
2018-11-13T07:05:22.283Z,33.03
2018-11-13T07:07:52.221Z,35.00
2018-11-13T07:10:22.764Z,35.47
2018-11-13T07:12:52.602Z,34.03
2018-11-13T07:15:23.031Z,33.87
2018-11-13T07:17:53.650Z,35.27
2018-11-13T07:20:24.060Z,35.10
2018-11-13T07:22:53.924Z,35.53
2018-11-13T07:25:23.329Z,34.47
2018-11-13T07:27:52.792Z,34.70
2018-11-13T07:30:22.889Z,33.77
2018-11-13T07:32:52.175Z,33.07
2018-11-13T07:35:22.124Z,33.53
2018-11-13T07:37:56.018Z,32.47
2018-11-13T07:40:25.270Z,34.20
2018-11-13T07:42:55.135Z,34.20
2018-11-13T07:45:25.360Z,33.17
2018-11-13T07:47:54.961Z,33.30
2018-11-13T07:50:24.178Z,33.23
2018-11-13T07:52:53.518Z,33.47
2018-11-13T07:55:22.872Z,30.40
2018-11-13T07:57:52.119Z,32.47
2018-11-13T08:00:23.642Z,29.93
2018-11-13T08:02:54.299Z,29.17
2018-11-13T08:05:23.651Z,28.37
2018-11-13T08:07:52.932Z,27.63
2018-11-13T08:10:22.247Z,28.20
2018-11-13T08:12:51.624Z,27.53
2018-11-13T08:15:20.827Z,28.07
2018-11-13T08:17:50.121Z,26.97
2018-11-13T08:20:19.418Z,24.70
2018-11-13T08:22:48.643Z,24.90
2018-11-13T08:25:17.980Z,23.50
2018-11-13T08:27:47.266Z,24.87
2018-11-13T08:30:18.319Z,23.70
2018-11-13T08:32:48.029Z,23.73
2018-11-13T08:35:17.998Z,24.57
2018-11-13T08:37:47.324Z,24.47
2018-11-13T08:40:18.008Z,23.77
2018-11-13T08:42:48.036Z,23.47
2018-11-13T08:45:18.220Z,24.63
2018-11-13T08:47:47.487Z,22.93
2018-11-13T08:50:17.160Z,23.43
2018-11-13T08:52:47.066Z,22.40
2018-11-13T08:55:16.644Z,22.00
2018-11-13T08:57:45.974Z,20.47
2018-11-13T09:00:17.399Z,20.20
2018-11-13T09:02:47.585Z,19.23
2018-11-13T09:05:17.180Z,20.10
2018-11-13T09:07:46.390Z,19.80
2018-11-13T09:10:17.077Z,20.53
2018-11-13T09:12:47.367Z,18.80
2018-11-13T09:22:16.884Z,17.93
2018-11-13T09:24:46.898Z,17.63
2018-11-13T09:27:16.113Z,18.23
2018-11-13T09:29:45.436Z,17.60
2018-11-13T09:32:14.656Z,17.73
2018-11-13T09:34:43.894Z,17.33
2018-11-13T09:37:13.207Z,16.63
2018-11-13T09:39:42.661Z,17.40
2018-11-13T09:42:12.171Z,15.90
2018-11-13T09:44:41.612Z,16.20
2018-11-13T09:47:10.828Z,17.20
2018-11-13T09:49:40.086Z,16.27
2018-11-13T09:52:09.337Z,16.00
2018-11-13T09:54:39.286Z,15.30
2018-11-13T09:57:08.553Z,14.77
2018-11-13T09:59:37.961Z,14.80
2018-11-13T10:02:08.002Z,14.50
2018-11-13T10:04:37.481Z,13.80
2018-11-13T10:07:07.052Z,14.60
2018-11-13T10:09:36.456Z,14.40
2018-11-13T10:12:06.117Z,14.67
2018-11-13T10:14:36.036Z,15.27
2018-11-13T10:17:05.508Z,15.43
2018-11-13T10:19:34.737Z,14.87
2018-11-13T10:22:04.034Z,15.27
2018-11-13T10:24:33.321Z,14.50
2018-11-13T10:27:02.594Z,14.13
2018-11-13T10:29:31.827Z,13.63
2018-11-13T10:32:01.608Z,13.93
2018-11-13T10:34:30.962Z,13.10
2018-11-13T10:37:00.654Z,13.20
2018-11-13T10:39:30.468Z,12.97
2018-11-13T10:42:00.667Z,12.13
2018-11-13T10:44:30.072Z,11.57
2018-11-13T10:46:59.480Z,11.57
2018-11-13T10:49:28.719Z,11.40
2018-11-13T10:51:58.056Z,9.10
2018-11-13T10:54:27.408Z,9.87
2018-11-13T10:56:56.878Z,9.17
2018-11-13T10:59:26.090Z,9.50
2018-11-13T11:02:01.732Z,9.17
2018-11-13T11:04:36.314Z,8.17
2018-11-13T11:07:06.027Z,8.60
2018-11-13T11:09:35.604Z,7.97
2018-11-13T11:12:05.453Z,6.93
2018-11-13T11:14:34.681Z,6.97
2018-11-13T11:17:03.936Z,6.77
2018-11-13T11:19:33.456Z,6.90
2018-11-13T11:22:03.123Z,6.00
2018-11-13T11:24:32.322Z,6.40
2018-11-13T11:27:01.588Z,5.40
2018-11-13T11:29:30.845Z,4.73
2018-11-13T11:32:00.085Z,4.13
2018-11-13T11:34:29.303Z,3.87
2018-11-13T11:36:58.536Z,3.30
2018-11-13T11:39:27.751Z,3.77
2018-11-13T11:41:56.968Z,4.57
2018-11-13T11:44:26.312Z,4.37
2018-11-13T11:46:55.425Z,4.10
2018-11-13T11:49:24.670Z,4.30
2018-11-13T11:51:53.879Z,4.73
2018-11-13T11:54:23.085Z,4.10
2018-11-13T11:56:52.344Z,4.50
2018-11-13T11:59:21.565Z,3.87
2018-11-13T12:01:50.798Z,3.20
2018-11-13T12:04:20.037Z,2.57
2018-11-13T12:06:50.289Z,2.47
2018-11-13T12:09:19.679Z,2.13
2018-11-13T12:11:50.615Z,2.37
2018-11-13T12:14:19.853Z,1.90
2018-11-13T12:16:49.881Z,1.87
2018-11-13T12:19:19.107Z,1.70
2018-11-13T12:21:48.343Z,2.37
2018-11-13T12:24:17.617Z,1.73
2018-11-13T12:26:46.874Z,1.90
2018-11-13T12:29:16.107Z,1.60
2018-11-13T12:31:45.333Z,1.80
2018-11-13T12:34:14.545Z,1.60
2018-11-13T12:36:43.773Z,1.83
2018-11-13T12:39:13.020Z,1.80
2018-11-13T12:41:42.250Z,1.70
2018-11-13T12:44:11.475Z,1.70
2018-11-13T12:46:40.729Z,2.00
2018-11-13T12:49:09.963Z,1.77
2018-11-13T12:51:44.414Z,1.80
2018-11-13T12:54:14.067Z,2.53
2018-11-13T12:56:43.272Z,2.17
2018-11-13T12:59:12.562Z,2.10
2018-11-13T13:01:41.799Z,1.73
2018-11-13T13:04:11.050Z,2.53
2018-11-13T13:06:40.308Z,2.47
2018-11-13T13:09:10.140Z,1.97
2018-11-13T13:11:39.609Z,2.20
2018-11-13T13:14:13.823Z,2.27
2018-11-13T13:16:43.068Z,2.20
2018-11-13T13:19:12.455Z,2.13
2018-11-13T13:21:41.735Z,2.03
2018-11-13T13:24:10.975Z,2.07
2018-11-13T13:26:40.182Z,2.20
2018-11-13T13:29:09.429Z,1.93
2018-11-13T13:31:38.803Z,2.30
2018-11-13T13:34:08.132Z,2.13
2018-11-13T13:36:37.437Z,2.00
2018-11-13T13:39:08.049Z,2.40
2018-11-13T13:41:37.293Z,2.23
2018-11-13T13:44:06.991Z,2.13
2018-11-13T13:46:36.782Z,2.23
2018-11-13T13:49:06.354Z,2.10
2018-11-13T13:51:35.620Z,1.83
2018-11-13T13:54:05.146Z,1.93
2018-11-13T13:56:34.425Z,2.73
2018-11-13T13:59:03.652Z,2.00
2018-11-13T14:01:32.875Z,2.00
2018-11-13T14:04:02.095Z,1.93
2018-11-13T14:06:31.380Z,2.27
2018-11-13T14:09:00.715Z,2.20
2018-11-13T14:11:29.911Z,2.13
2018-11-13T14:13:59.187Z,2.67
2018-11-13T14:16:28.481Z,3.07
2018-11-13T14:18:57.726Z,2.10
2018-11-13T14:21:27.803Z,2.43
2018-11-13T14:23:57.171Z,2.40
2018-11-13T14:26:26.410Z,2.17
2018-11-13T14:28:55.681Z,2.50
2018-11-13T14:31:25.419Z,2.20
2018-11-13T14:33:55.666Z,2.00
2018-11-13T14:36:25.017Z,2.10
2018-11-13T14:38:54.204Z,1.80
2018-11-13T14:41:23.440Z,2.43
2018-11-13T14:43:52.713Z,2.40
2018-11-13T14:46:22.066Z,2.07
2018-11-13T14:48:52.133Z,3.10
2018-11-13T14:51:21.520Z,2.57
2018-11-13T14:53:50.797Z,2.53
2018-11-13T14:56:20.053Z,2.13
2018-11-13T14:58:49.307Z,2.50
2018-11-13T15:01:18.569Z,2.33
2018-11-13T15:03:47.924Z,3.03
2018-11-13T15:06:17.191Z,2.63
2018-11-13T15:08:46.458Z,3.00
2018-11-13T15:11:15.866Z,2.03
2018-11-13T15:13:45.394Z,2.23
2018-11-13T15:16:14.645Z,2.00
2018-11-13T15:18:43.923Z,2.90
2018-11-13T15:21:13.279Z,2.17
2018-11-13T15:23:42.670Z,2.77
2018-11-13T15:26:11.893Z,1.97
2018-11-13T15:28:41.290Z,2.40
2018-11-13T15:31:10.536Z,2.33
2018-11-13T15:33:39.906Z,2.83
2018-11-13T15:36:09.124Z,2.47
2018-11-13T15:38:38.328Z,2.40
2018-11-13T15:41:08.240Z,2.00
2018-11-13T15:43:37.529Z,1.83
2018-11-13T15:46:07.061Z,2.40
2018-11-13T15:48:36.304Z,2.20
2018-11-13T15:51:05.676Z,1.90
2018-11-13T15:53:35.715Z,2.53
2018-11-13T15:56:04.934Z,3.03
2018-11-13T15:58:34.234Z,2.47
2018-11-13T16:01:03.472Z,2.27
2018-11-13T16:03:35.646Z,2.07
2018-11-13T16:06:06.272Z,2.23
2018-11-13T16:08:35.842Z,2.37
2018-11-13T16:11:05.158Z,2.50
2018-11-13T16:13:34.408Z,2.10
2018-11-13T16:16:03.763Z,2.77
2018-11-13T16:18:32.985Z,2.60
2018-11-13T16:21:02.406Z,2.37
2018-11-13T16:23:31.535Z,2.20
2018-11-13T16:26:01.465Z,2.47
2018-11-13T16:28:30.811Z,2.63
2018-11-13T16:31:00.153Z,2.40
2018-11-13T16:33:29.431Z,2.40
2018-11-13T16:35:58.641Z,1.93
2018-11-13T16:38:28.806Z,2.37
2018-11-13T16:40:58.204Z,2.17
2018-11-13T16:43:27.663Z,2.73
2018-11-13T16:45:56.969Z,2.00
2018-11-13T16:48:26.396Z,2.77
2018-11-13T16:50:55.681Z,2.60
2018-11-13T16:53:24.944Z,2.93
2018-11-13T16:56:01.592Z,2.10
2018-11-13T16:58:30.872Z,2.60
2018-11-13T17:01:00.197Z,2.37
2018-11-13T17:03:29.535Z,2.57
2018-11-13T17:05:59.567Z,2.60
2018-11-13T17:08:28.947Z,2.77
2018-11-13T17:10:58.273Z,2.00
2018-11-13T17:13:27.661Z,2.60
2018-11-13T17:15:56.925Z,2.73
2018-11-13T17:18:27.223Z,2.60
2018-11-13T17:20:56.188Z,3.30
2018-11-13T17:23:25.529Z,2.47
2018-11-13T17:25:54.884Z,2.57
2018-11-13T17:28:25.780Z,2.80
2018-11-13T17:30:55.765Z,2.83
2018-11-13T17:33:24.988Z,2.43
2018-11-13T17:35:54.387Z,2.50
2018-11-13T17:38:23.620Z,2.33
2018-11-13T17:40:53.044Z,2.40
2018-11-13T17:43:22.297Z,2.77
2018-11-13T17:45:52.105Z,2.80
2018-11-13T17:48:21.365Z,2.67
2018-11-13T17:50:50.628Z,2.60
2018-11-13T17:53:19.930Z,2.10
2018-11-13T17:55:49.129Z,2.90
2018-11-13T17:58:18.445Z,2.37
2018-11-13T18:00:48.274Z,2.53
2018-11-13T18:03:18.768Z,2.40
2018-11-13T18:05:48.863Z,3.43
2018-11-13T18:08:18.261Z,2.30
2018-11-13T18:10:48.298Z,2.80
2018-11-13T18:13:17.631Z,2.60
2018-11-13T18:15:46.920Z,2.83
2018-11-13T18:18:16.287Z,2.77
2018-11-13T18:20:45.690Z,2.87
2018-11-13T18:23:15.075Z,3.00
2018-11-13T18:25:45.122Z,3.90
2018-11-13T18:28:15.078Z,2.63
2018-11-13T18:30:44.889Z,2.63
2018-11-13T18:33:14.976Z,2.77
2018-11-13T18:35:44.335Z,2.90
2018-11-13T18:38:15.207Z,2.70
2018-11-13T18:40:45.847Z,2.90
2018-11-13T18:43:15.164Z,3.07
2018-11-13T18:45:45.237Z,2.80
2018-11-13T18:48:14.971Z,2.90
2018-11-13T18:50:45.550Z,2.60
2018-11-13T18:53:15.144Z,2.60
2018-11-13T18:55:44.426Z,3.37
2018-11-13T18:58:13.752Z,2.80
2018-11-13T19:00:43.337Z,3.00
2018-11-13T19:03:13.222Z,2.67
2018-11-13T19:05:42.891Z,2.53
2018-11-13T19:08:12.468Z,2.90
2018-11-13T19:10:44.322Z,2.93
2018-11-13T19:13:28.005Z,2.33
2018-11-13T19:16:00.022Z,2.57
2018-11-13T19:18:29.521Z,3.83
2018-11-13T19:20:58.756Z,2.83
2018-11-13T19:23:28.077Z,2.93
2018-11-13T19:25:57.341Z,2.53
2018-11-13T19:28:26.704Z,2.47
2018-11-13T19:30:56.086Z,2.63
2018-11-13T19:33:25.730Z,2.23
2018-11-13T19:35:55.120Z,2.87
2018-11-13T19:38:24.282Z,2.40
2018-11-13T19:40:53.521Z,2.90
2018-11-13T19:43:22.780Z,3.13
2018-11-13T19:45:52.050Z,3.20
2018-11-13T19:48:21.466Z,3.20
2018-11-13T19:50:50.688Z,2.77
2018-11-13T19:53:19.944Z,3.10
2018-11-13T19:55:49.239Z,3.27
2018-11-13T19:58:18.558Z,3.13
2018-11-13T20:00:47.842Z,3.27
2018-11-13T20:03:17.480Z,2.90
2018-11-13T20:05:46.753Z,3.30
2018-11-13T20:08:16.085Z,5.60
2018-11-13T20:10:45.595Z,3.30
2018-11-13T20:13:15.007Z,3.23
2018-11-13T20:15:44.271Z,3.73
2018-11-13T20:18:13.789Z,3.80
2018-11-13T20:20:43.095Z,3.73
2018-11-13T20:23:13.076Z,3.70
2018-11-13T20:25:42.315Z,3.80
2018-11-13T20:28:12.477Z,3.30
2018-11-13T20:30:42.859Z,3.37
2018-11-13T20:33:13.388Z,3.70
2018-11-13T20:35:43.912Z,3.77
2018-11-13T20:38:14.074Z,3.73
2018-11-13T20:40:43.302Z,3.60
2018-11-13T20:43:13.384Z,3.00
2018-11-13T20:45:42.780Z,3.97
2018-11-13T20:48:12.256Z,3.57
2018-11-13T20:50:41.614Z,3.90
2018-11-13T20:53:11.293Z,3.13
2018-11-13T20:55:40.548Z,4.20
2018-11-13T20:58:09.792Z,3.40
2018-11-13T21:00:39.094Z,3.50
2018-11-13T21:03:08.521Z,4.30
2018-11-13T21:05:37.741Z,3.43
2018-11-13T21:08:07.008Z,3.80
2018-11-13T21:10:37.751Z,3.43
2018-11-13T21:13:07.887Z,3.70
2018-11-13T21:15:37.272Z,3.90
2018-11-13T21:18:06.685Z,4.10
2018-11-13T21:20:36.916Z,4.17
2018-11-13T21:23:06.261Z,3.77
2018-11-13T21:25:35.494Z,3.60
2018-11-13T21:28:05.018Z,4.37
2018-11-13T21:30:34.448Z,4.20
2018-11-13T21:33:03.660Z,4.60
2018-11-13T21:35:32.867Z,4.20
2018-11-13T21:38:02.572Z,4.10
2018-11-13T21:40:31.816Z,4.33
2018-11-13T21:43:01.030Z,4.20
2018-11-13T21:45:30.259Z,3.80
2018-11-13T21:47:59.661Z,4.27
2018-11-13T21:50:29.876Z,4.27
2018-11-13T21:52:59.968Z,4.03
2018-11-13T21:55:29.956Z,4.10
2018-11-13T21:58:05.218Z,4.97
2018-11-13T22:00:34.879Z,3.63
2018-11-13T22:03:07.024Z,4.23
2018-11-13T22:05:37.330Z,4.20
2018-11-13T22:08:06.982Z,4.13
2018-11-13T22:10:36.255Z,3.80
2018-11-13T22:13:05.950Z,4.43
2018-11-13T22:15:35.128Z,4.00
2018-11-13T22:18:04.385Z,4.30
2018-11-13T22:20:33.904Z,4.20
2018-11-13T22:23:03.829Z,3.73
2018-11-13T22:25:33.096Z,4.57
2018-11-13T22:28:02.663Z,4.37
2018-11-13T22:30:32.456Z,3.90
2018-11-13T22:33:01.683Z,4.07
2018-11-13T22:35:30.960Z,4.07
2018-11-13T22:38:00.454Z,5.17
2018-11-13T22:40:29.687Z,4.90
2018-11-13T22:42:59.991Z,4.13
2018-11-13T22:45:30.018Z,5.33
2018-11-13T22:47:59.831Z,4.77
2018-11-13T22:50:31.796Z,4.57
2018-11-13T22:53:01.383Z,5.00
2018-11-13T22:55:30.798Z,5.07
2018-11-13T22:58:01.133Z,5.43
2018-11-13T23:00:53.648Z,5.10
2018-11-13T23:03:22.929Z,5.07
2018-11-13T23:05:52.207Z,5.73
2018-11-13T23:08:21.903Z,5.83
2018-11-13T23:10:51.570Z,6.00
2018-11-13T23:13:20.832Z,6.83
2018-11-13T23:15:50.065Z,6.77
2018-11-13T23:18:19.440Z,7.27
2018-11-13T23:20:48.981Z,8.03
2018-11-13T23:23:19.268Z,8.90
2018-11-13T23:25:49.316Z,8.87
2018-11-13T23:28:18.718Z,10.37
2018-11-13T23:30:47.982Z,9.63
2018-11-13T23:33:17.508Z,9.67
2018-11-13T23:35:46.709Z,11.00
2018-11-13T23:38:15.963Z,10.53
2018-11-13T23:40:45.194Z,12.70
2018-11-13T23:43:15.466Z,12.73
2018-11-13T23:45:44.696Z,13.50
2018-11-13T23:48:14.680Z,13.53
2018-11-13T23:50:43.951Z,14.07
2018-11-13T23:53:13.212Z,14.83
2018-11-13T23:55:42.572Z,15.10
2018-11-13T23:58:11.766Z,15.10
